Terminal Aerodrome Forecast
Issued by NWS Northern Indiana

Home | Current Version | Previous Version | Text Only | Print | Product List | Glossary Off
Versions: 1 2 3 4 5 6 7 8 9 10 11 12 13 14 15 16 17 18 19 20 21

000
FTUS43 KIWX 201100
TAFFWA
TAF
KFWA 201120Z 2012/2112 23005KT 6SM BR SCT025
     FM201400 27010KT P6SM SCT030
     FM210000 VRB03KT P6SM SCT250
     FM210900 17004KT P6SM VCTS BKN050CB=

USA.gov is the U.S. government's official web portal to all federal, state and local government web resources and services.